KSJX

Details ICAO KSJX
Name BEAVER ISLAND
Region United States
Timezone America/Detroit (UTC-5.0)
Plans Departing 3
Arriving 5
Stats Elevation 669 ft / 204 m (AMSL)
Location 45.692538° -85.566368°
Runways 3
Magnetic Variation 6.336° W
Sunrise 2017-12-11 13:14:38 UTC / 2017-12-11 08:14:38 Local
Sunset 2017-12-11 21:59:32 UTC / 2017-12-11 16:59:32 Local
Advertisement - Login to hide

Runways

ID Width Length Bearing (true) Bearing (mag) Surface Threshold Offset Overrun Length
05 120 ft / 37 m 2,080 ft / 634 m 42.28° 48.62° Grass 0 ft / 0 m 0 ft / 0 m
09 75 ft / 23 m 4,289 ft / 1,307 m 90.14° 96.48° Asphalt 0 ft / 0 m 0 ft / 0 m
14 120 ft / 37 m 3,299 ft / 1,006 m 132.10° 138.44° Grass 0 ft / 0 m 0 ft / 0 m
23 120 ft / 37 m 2,080 ft / 634 m 222.29° 228.63° Grass 0 ft / 0 m 0 ft / 0 m
27 75 ft / 23 m 4,289 ft / 1,307 m 270.15° 276.49° Asphalt 0 ft / 0 m 0 ft / 0 m
32 120 ft / 37 m 3,299 ft / 1,006 m 312.10° 318.44° Grass 600 ft / 183 m 0 ft / 0 m

Map

Weather


0- 5 10 15 20 25 30 35+ Temperature / ° C

Clouds and Precipitation
Forecast for 2017-12-12 00:00 UTC. Updated 2 hours ago

Ground ~20,000 ft ~40,000 ft Winds

METAR

KSJX 112115Z AUTO 13003KT 3SM -SN BKN013 OVC018 M03/M04 A2970 RMK AO2 T10301039

TAF

Not found

Frequencies

Recorded 118.07 MHz AWOS 3
Unicom 122.80 MHz CTAF/UNICOM
Warning: Do not use this data for real-world aviation or navigation. No guarantee of current accuracy is given.